Observation data for Tulia on 05/22/2019      Previous  Date  Next       Current Mesonet Observations  Soil Data  Daily Summary Page  Observations in Plain Language
KTIS 220500Z 21007KT 13/M01 A2965 RMK A01 T01311006  RH  039%=      5-min Rain = 0
KTIS 220505Z 20007KT 12/M00 A2965 RMK A01 T01241004  RH  042%=      5-min Rain = 0
KTIS 220510Z 20007KT 11/00 A2965 RMK A01 T01110001  RH  047%=      5-min Rain = 0
KTIS 220515Z 21008KT 11/M00 A2965 RMK A01 T01101003  RH  046%=      5-min Rain = 0
KTIS 220520Z 21008KT 11/M01 A2965 RMK A01 T01111006  RH  045%=      5-min Rain = 0
KTIS 220525Z 22008KT 11/M01 A2965 RMK A01 T01121008  RH  044%=      5-min Rain = 0
KTIS 220530Z 22006KT 12/M01 A2964 RMK A01 T01211014  RH  040%=      5-min Rain = 0
KTIS 220535Z 22007KT 12/M01 A2964 RMK A01 T01181010  RH  041%=      5-min Rain = 0
KTIS 220540Z 22007KT 12/M01 A2964 RMK A01 T01161008  RH  043%=      5-min Rain = 0
KTIS 220545Z 22007KT 11/M01 A2965 RMK A01 T01141009  RH  043%=      5-min Rain = 0
KTIS 220550Z 21007KT 11/M01 A2965 RMK A01 T01141010  RH  043%=      5-min Rain = 0
KTIS 220555Z 21006KT 11/M01 A2965 RMK A01 T01101007  RH  045%=      5-min Rain = 0
KTIS 220600Z 21007KT 11/M01 A2965 RMK A01 T01111009  RH  044%=      5-min Rain = 0
KTIS 220605Z 21007KT 11/M01 A2965 RMK A01 T01141011  RH  042%=      5-min Rain = 0
KTIS 220610Z 20008KT 11/M01 A2965 RMK A01 T01141010  RH  043%=      5-min Rain = 0
KTIS 220615Z 20009KT 12/M01 A2965 RMK A01 T01151012  RH  042%=      5-min Rain = 0
KTIS 220620Z 21007KT 11/M01 A2965 RMK A01 T01141013  RH  041%=      5-min Rain = 0
KTIS 220625Z 24007KT 11/M01 A2965 RMK A01 T01121011  RH  043%=      5-min Rain = 0
KTIS 220630Z 24008KT 11/M01 A2965 RMK A01 T01121014  RH  042%=      5-min Rain = 0
KTIS 220635Z 24008KT 12/M02 A2965 RMK A01 T01171015  RH  040%=      5-min Rain = 0
KTIS 220640Z 25009KT 11/M01 A2965 RMK A01 T01131013  RH  042%=      5-min Rain = 0
KTIS 220645Z 25008KT 12/M02 A2965 RMK A01 T01171017  RH  040%=      5-min Rain = 0
KTIS 220650Z 24008KT 12/M02 A2965 RMK A01 T01211019  RH  038%=      5-min Rain = 0
KTIS 220655Z 21008KT 12/M02 A2965 RMK A01 T01241021  RH  037%=      5-min Rain = 0
KTIS 220700Z 21008KT 12/M02 A2965 RMK A01 T01201016  RH  039%=      5-min Rain = 0
KTIS 220705Z 22006KT 11/M01 A2965 RMK A01 T01131013  RH  042%=      5-min Rain = 0
KTIS 220710Z 23007KT 11/M02 A2965 RMK A01 T01111016  RH  042%=      5-min Rain = 0
KTIS 220715Z 23007KT 11/M02 A2964 RMK A01 T01101016  RH  042%=      5-min Rain = 0
KTIS 220720Z 24006KT 11/M01 A2964 RMK A01 T01071014  RH  043%=      5-min Rain = 0
KTIS 220725Z 23007KT 10/M02 A2964 RMK A01 T01041015  RH  044%=      5-min Rain = 0
KTIS 220730Z 23007KT 11/M02 A2964 RMK A01 T01051017  RH  043%=      5-min Rain = 0
KTIS 220735Z 24007KT 11/M02 A2964 RMK A01 T01061017  RH  042%=      5-min Rain = 0
KTIS 220740Z 24008KT 11/M02 A2964 RMK A01 T01061018  RH  042%=      5-min Rain = 0
KTIS 220745Z 24007KT 11/M02 A2964 RMK A01 T01081019  RH  041%=      5-min Rain = 0
KTIS 220750Z 24007KT 11/M02 A2964 RMK A01 T01091020  RH  041%=      5-min Rain = 0
KTIS 220755Z 24007KT 11/M02 A2964 RMK A01 T01101021  RH  040%=      5-min Rain = 0
KTIS 220800Z 24007KT 11/M02 A2964 RMK A01 T01101021  RH  040%=      5-min Rain = 0
KTIS 220805Z 23008KT 11/M02 A2964 RMK A01 T01091020  RH  041%=      5-min Rain = 0
KTIS 220810Z 20009KT 10/M02 A2965 RMK A01 T01041016  RH  044%=      5-min Rain = 0
KTIS 220815Z 23007KT 10/M02 A2964 RMK A01 T01001015  RH  045%=      5-min Rain = 0
KTIS 220820Z 23008KT 10/M02 A2964 RMK A01 T00991016  RH  045%=      5-min Rain = 0
KTIS 220825Z 21008KT 10/M02 A2965 RMK A01 T00981017  RH  045%=      5-min Rain = 0
KTIS 220830Z 20007KT 10/M02 A2965 RMK A01 T00971016  RH  046%=      5-min Rain = 0
KTIS 220835Z 22007KT 10/M02 A2964 RMK A01 T00951017  RH  046%=      5-min Rain = 0
KTIS 220840Z 21008KT 10/M02 A2965 RMK A01 T00961017  RH  045%=      5-min Rain = 0
KTIS 220845Z 21007KT 10/M02 A2964 RMK A01 T00951017  RH  046%=      5-min Rain = 0
KTIS 220850Z 22007KT 10/M02 A2965 RMK A01 T00951019  RH  045%=      5-min Rain = 0
KTIS 220855Z 20007KT 10/M02 A2965 RMK A01 T00961018  RH  045%=      5-min Rain = 0
KTIS 220900Z 20009KT 10/M02 A2965 RMK A01 T00991021  RH  043%=      5-min Rain = 0
KTIS 220905Z 20008KT 10/M02 A2965 RMK A01 T01011021  RH  043%=      5-min Rain = 0
KTIS 220910Z 20008KT 10/M02 A2965 RMK A01 T01001022  RH  043%=      5-min Rain = 0
KTIS 220915Z 21007KT 10/M02 A2965 RMK A01 T01021024  RH  042%=      5-min Rain = 0
KTIS 220920Z 22007KT 11/M03 A2965 RMK A01 T01061028  RH  039%=      5-min Rain = 0
KTIS 220925Z 22008KT 11/M03 A2965 RMK A01 T01121031  RH  037%=      5-min Rain = 0
KTIS 220930Z 22007KT 11/M03 A2965 RMK A01 T01141031  RH  036%=      5-min Rain = 0
KTIS 220935Z 23007KT 11/M03 A2965 RMK A01 T01131030  RH  037%=      5-min Rain = 0
KTIS 220940Z 23009KT 11/M03 A2965 RMK A01 T01081028  RH  039%=      5-min Rain = 0
KTIS 220945Z 22008KT 11/M03 A2965 RMK A01 T01061029  RH  039%=      5-min Rain = 0
KTIS 220950Z 22008KT 11/M03 A2965 RMK A01 T01051029  RH  039%=      5-min Rain = 0
KTIS 220955Z 23007KT 10/M03 A2965 RMK A01 T01041028  RH  040%=      5-min Rain = 0
KTIS 221000Z 24006KT 10/M03 A2966 RMK A01 T01031027  RH  040%=      5-min Rain = 0
KTIS 221005Z 26008KT 10/M03 A2966 RMK A01 T01001026  RH  041%=      5-min Rain = 0
KTIS 221010Z 30010KT 09/M02 A2967 RMK A01 T00911016  RH  048%=      5-min Rain = 0
KTIS 221015Z 29006KT 07/M01 A2967 RMK A01 T00741007  RH  057%=      5-min Rain = 0
KTIS 221020Z 29007KT 07/M01 A2968 RMK A01 T00681006  RH  060%=      5-min Rain = 0
KTIS 221025Z 29007KT 07/M01 A2968 RMK A01 T00651005  RH  061%=      5-min Rain = 0
KTIS 221030Z 29006KT 06/M01 A2968 RMK A01 T00641007  RH  061%=      5-min Rain = 0
KTIS 221035Z 27005KT 07/M01 A2968 RMK A01 T00651008  RH  060%=      5-min Rain = 0
KTIS 221040Z 27006KT 07/M01 A2968 RMK A01 T00681009  RH  059%=      5-min Rain = 0
KTIS 221045Z 27005KT 07/M01 A2968 RMK A01 T00691010  RH  057%=      5-min Rain = 0
KTIS 221050Z 28005KT 07/M01 A2968 RMK A01 T00711010  RH  057%=      5-min Rain = 0
KTIS 221055Z 27004KT 07/M01 A2968 RMK A01 T00721012  RH  055%=      5-min Rain = 0
KTIS 221100Z 28005KT 08/M01 A2968 RMK A01 T00751014  RH  054%=      5-min Rain = 0
KTIS 221105Z 28005KT 07/M01 A2968 RMK A01 T00731012  RH  055%=      5-min Rain = 0
KTIS 221110Z 28004KT 07/M01 A2968 RMK A01 T00721010  RH  057%=      5-min Rain = 0
KTIS 221115Z 27004KT 07/M01 A2968 RMK A01 T00711012  RH  056%=      5-min Rain = 0
KTIS 221120Z 25003KT 07/M01 A2968 RMK A01 T00731012  RH  056%=      5-min Rain = 0
KTIS 221125Z 27003KT 08/M01 A2968 RMK A01 T00751014  RH  054%=      5-min Rain = 0
KTIS 221130Z 27004KT 08/M01 A2968 RMK A01 T00751014  RH  054%=      5-min Rain = 0
KTIS 221135Z 28005KT 07/M01 A2968 RMK A01 T00681007  RH  059%=      5-min Rain = 0
KTIS 221140Z 28004KT 06/M01 A2969 RMK A01 T00641007  RH  061%=      5-min Rain = 0
KTIS 221145Z 27004KT 07/M01 A2969 RMK A01 T00651007  RH  060%=      5-min Rain = 0
KTIS 221150Z 25003KT 07/M01 A2969 RMK A01 T00651007  RH  061%=      5-min Rain = 0
KTIS 221155Z 24003KT 07/M01 A2969 RMK A01 T00651010  RH  059%=      5-min Rain = 0
KTIS 221200Z 26004KT 07/M01 A297 RMK A01 T00721010  RH  057%=      5-min Rain = 0
KTIS 221205Z 27003KT 07/M00 A297 RMK A01 T00671003  RH  062%=      5-min Rain = 0
KTIS 221210Z 28003KT 06/M00 A297 RMK A01 T00641001  RH  064%=      5-min Rain = 0
KTIS 221215Z 28002KT 07/00 A297 RMK A01 T00670002  RH  064%=      5-min Rain = 0
KTIS 221220Z 27002KT 07/01 A297 RMK A01 T00670007  RH  066%=      5-min Rain = 0
KTIS 221225Z 25001KT 07/01 A297 RMK A01 T00650010  RH  069%=      5-min Rain = 0
KTIS 221230Z 20004KT 07/01 A297 RMK A01 T00680012  RH  068%=      5-min Rain = 0
KTIS 221235Z 19006KT 07/01 A297 RMK A01 T00740009  RH  064%=      5-min Rain = 0
KTIS 221240Z 19004KT 08/01 A297 RMK A01 T00780013  RH  064%=      5-min Rain = 0
KTIS 221245Z 20004KT 08/01 A297 RMK A01 T00840007  RH  059%=      5-min Rain = 0
KTIS 221250Z 24003KT 09/01 A297 RMK A01 T00890007  RH  057%=      5-min Rain = 0
KTIS 221255Z 23003KT 09/01 A297 RMK A01 T00940005  RH  055%=      5-min Rain = 0
KTIS 221300Z 22003KT 10/01 A297 RMK A01 T00990005  RH  053%=      5-min Rain = 0
KTIS 221305Z 20003KT 11/01 A2969 RMK A01 T01050007  RH  051%=      5-min Rain = 0
KTIS 221310Z 19005KT 11/00 A2969 RMK A01 T01130001  RH  047%=      5-min Rain = 0
KTIS 221315Z 20005KT 12/00 A2969 RMK A01 T01200000  RH  044%=      5-min Rain = 0
KTIS 221320Z 21005KT 13/M01 A2969 RMK A01 T01251006  RH  041%=      5-min Rain = 0
KTIS 221325Z 21004KT 13/M00 A297 RMK A01 T01291001  RH  041%=      5-min Rain = 0
KTIS 221330Z 23004KT 14/00 A297 RMK A01 T01350002  RH  041%=      5-min Rain = 0
KTIS 221335Z 23004KT 14/00 A297 RMK A01 T01390004  RH  040%=      5-min Rain = 0
KTIS 221340Z 23003KT 14/00 A297 RMK A01 T01440003  RH  039%=      5-min Rain = 0
KTIS 221345Z 21004KT 15/01 A297 RMK A01 T01490007  RH  038%=      5-min Rain = 0
KTIS 221350Z 21005KT 15/01 A297 RMK A01 T01540010  RH  038%=      5-min Rain = 0
KTIS 221355Z 20005KT 16/01 A297 RMK A01 T01590011  RH  037%=      5-min Rain = 0
KTIS 221400Z 21007KT 17/01 A297 RMK A01 T01690008  RH  034%=      5-min Rain = 0
KTIS 221405Z 21008KT 17/00 A297 RMK A01 T01740002  RH  032%=      5-min Rain = 0
KTIS 221410Z 21008KT 18/00 A2971 RMK A01 T01780002  RH  031%=      5-min Rain = 0
KTIS 221415Z 21008KT 18/01 A2971 RMK A01 T01830009  RH  031%=      5-min Rain = 0
KTIS 221420Z 23008KT 19/01 A2971 RMK A01 T01850006  RH  030%=      5-min Rain = 0
KTIS 221425Z 24008KT 19/01 A2971 RMK A01 T01900005  RH  029%=      5-min Rain = 0
KTIS 221430Z 26008KT 19/01 A2972 RMK A01 T01920009  RH  030%=      5-min Rain = 0
KTIS 221435Z 27007KT 19/01 A2972 RMK A01 T01930014  RH  031%=      5-min Rain = 0
KTIS 221440Z 27007KT 19/01 A2972 RMK A01 T01900012  RH  031%=      5-min Rain = 0
KTIS 221445Z 28008KT 19/02 A2972 RMK A01 T01900016  RH  032%=      5-min Rain = 0
KTIS 221450Z 27007KT 19/01 A2972 RMK A01 T01900013  RH  031%=      5-min Rain = 0
KTIS 221455Z 28006KT 19/02 A2973 RMK A01 T01930015  RH  031%=      5-min Rain = 0
KTIS 221500Z 28007KT 20/01 A2973 RMK A01 T01950013  RH  030%=      5-min Rain = 0
KTIS 221505Z 26008KT 20/01 A2973 RMK A01 T01970007  RH  028%=      5-min Rain = 0
KTIS 221510Z 27007KT 20/01 A2973 RMK A01 T02030013  RH  029%=      5-min Rain = 0
KTIS 221515Z 26006KT 21/01 A2973 RMK A01 T02050007  RH  027%=      5-min Rain = 0
KTIS 221520Z 27007KT 21/01 A2973 RMK A01 T02070006  RH  026%=      5-min Rain = 0
KTIS 221525Z 26007KT 21/00 A2974 RMK A01 T02080002  RH  026%=      5-min Rain = 0
KTIS 221530Z 24005KT 21/00 A2974 RMK A01 T02100004  RH  026%=      5-min Rain = 0
KTIS 221535Z 25007KT 21/01 A2974 RMK A01 T02140005  RH  025%=      5-min Rain = 0
KTIS 221540Z 24007KT 21/00 A2974 RMK A01 T02130001  RH  025%=      5-min Rain = 0
KTIS 221545Z 23007KT 21/00 A2974 RMK A01 T021400-0  RH  024%=      5-min Rain = 0
KTIS 221550Z 26006KT 22/M00 A2974 RMK A01 T02171002  RH  023%=      5-min Rain = 0
KTIS 221555Z 26006KT 22/M00 A2974 RMK A01 T02191001  RH  023%=      5-min Rain = 0
KTIS 221600Z 24007G13KT 22/M00 A2974 RMK A01 T02221001  RH  023%=      5-min Rain = 0
KTIS 221605Z 25006KT 22/00 A2974 RMK A01 T02240001  RH  023%=      5-min Rain = 0
KTIS 221610Z 25007KT 23/00 A2974 RMK A01 T022800-0  RH  022%=      5-min Rain = 0
KTIS 221615Z 26005G11KT 23/00 A2975 RMK A01 T02300001  RH  022%=      5-min Rain = 0
KTIS 221620Z 25006KT 23/01 A2975 RMK A01 T02340005  RH  022%=      5-min Rain = 0
KTIS 221625Z 25006KT 24/00 A2975 RMK A01 T023500-0  RH  021%=      5-min Rain = 0
KTIS 221630Z 24006G11KT 24/00 A2975 RMK A01 T02380002  RH  021%=      5-min Rain = 0
KTIS 221635Z 26009KT 24/00 A2975 RMK A01 T02420001  RH  021%=      5-min Rain = 0
KTIS 221640Z 26010G15KT 24/M00 A2975 RMK A01 T02421001  RH  020%=      5-min Rain = 0
KTIS 221645Z 25008KT 24/M01 A2975 RMK A01 T02411005  RH  020%=      5-min Rain = 0
KTIS 221650Z 25009G14KT 24/M00 A2975 RMK A01 T02431001  RH  020%=      5-min Rain = 0
KTIS 221655Z 26008KT 24/M01 A2975 RMK A01 T02441005  RH  020%=      5-min Rain = 0
KTIS 221700Z 27009G14KT 25/M00 A2975 RMK A01 T02461003  RH  020%=      5-min Rain = 0
KTIS 221705Z 26010KT 25/M01 A2975 RMK A01 T02491005  RH  019%=      5-min Rain = 0
KTIS 221710Z 25009G14KT 25/M01 A2975 RMK A01 T02511006  RH  019%=      5-min Rain = 0
KTIS 221715Z 27008KT 25/M01 A2975 RMK A01 T02491008  RH  018%=      5-min Rain = 0
KTIS 221720Z 24010KT 25/M01 A2975 RMK A01 T02521011  RH  018%=      5-min Rain = 0
KTIS 221725Z 24011KT 25/M02 A2975 RMK A01 T02541017  RH  017%=      5-min Rain = 0
KTIS 221730Z 25009G14KT 26/M01 A2975 RMK A01 T02551011  RH  017%=      5-min Rain = 0
KTIS 221735Z 27010KT 26/M02 A2975 RMK A01 T02551016  RH  017%=      5-min Rain = 0
KTIS 221740Z 28004KT 25/M01 A2975 RMK A01 T02511014  RH  018%=      5-min Rain = 0
KTIS 221745Z 24008G13KT 26/M01 A2975 RMK A01 T02581008  RH  018%=      5-min Rain = 0
KTIS 221750Z 23010G16KT 26/M01 A2975 RMK A01 T02631007  RH  017%=      5-min Rain = 0
KTIS 221755Z 21008KT 26/M01 A2975 RMK A01 T02591011  RH  017%=      5-min Rain = 0
KTIS 221800Z 24008G13KT 26/M01 A2975 RMK A01 T02591010  RH  017%=      5-min Rain = 0
KTIS 221805Z 23009G15KT 26/M01 A2975 RMK A01 T02611009  RH  017%=      5-min Rain = 0
KTIS 221810Z 25007G12KT 27/00 A2975 RMK A01 T02650000  RH  018%=      5-min Rain = 0
KTIS 221815Z 23011G18KT 27/M01 A2975 RMK A01 T02661007  RH  017%=      5-min Rain = 0
KTIS 221820Z 22012G17KT 26/M02 A2975 RMK A01 T02641020  RH  016%=      5-min Rain = 0
KTIS 221825Z 22007KT 27/M01 A2975 RMK A01 T02671012  RH  016%=      5-min Rain = 0
KTIS 221830Z 21012G19KT 27/M01 A2975 RMK A01 T02711009  RH  016%=      5-min Rain = 0
KTIS 221835Z 22011KT 27/M02 A2975 RMK A01 T02671022  RH  015%=      5-min Rain = 0
KTIS 221840Z 21012G19KT 27/M01 A2975 RMK A01 T02721013  RH  016%=      5-min Rain = 0
KTIS 221845Z 22014G22KT 27/M02 A2975 RMK A01 T02721018  RH  015%=      5-min Rain = 0
KTIS 221850Z 21012G20KT 27/M02 A2975 RMK A01 T02701020  RH  015%=      5-min Rain = 0
KTIS 221855Z 23012G17KT 27/M02 A2974 RMK A01 T02741017  RH  015%=      5-min Rain = 0
KTIS 221900Z 23009KT 28/M01 A2974 RMK A01 T02751014  RH  015%=      5-min Rain = 0
KTIS 221905Z 22013G22KT 28/M01 A2974 RMK A01 T02781014  RH  015%=      5-min Rain = 0
KTIS 221910Z 21012G18KT 28/M02 A2974 RMK A01 T02791016  RH  015%=      5-min Rain = 0
KTIS 221915Z 22012G17KT 28/M02 A2974 RMK A01 T02791015  RH  015%=      5-min Rain = 0
KTIS 221920Z 20012G17KT 28/M01 A2973 RMK A01 T02831010  RH  015%=      5-min Rain = 0
KTIS 221925Z 20014G21KT 29/M02 A2973 RMK A01 T02851015  RH  014%=      5-min Rain = 0
KTIS 221930Z 22012G18KT 29/M01 A2973 RMK A01 T02861013  RH  014%=      5-min Rain = 0
KTIS 221935Z 22012G18KT 29/M01 A2973 RMK A01 T02851012  RH  015%=      5-min Rain = 0
KTIS 221940Z 21013G18KT 29/M01 A2973 RMK A01 T02901010  RH  014%=      5-min Rain = 0
KTIS 221945Z 20011G16KT 29/M01 A2973 RMK A01 T02891013  RH  014%=      5-min Rain = 0
KTIS 221950Z 23015G20KT 29/M02 A2972 RMK A01 T02891017  RH  014%=      5-min Rain = 0
KTIS 221955Z 22010G18KT 29/M02 A2973 RMK A01 T02891015  RH  014%=      5-min Rain = 0
KTIS 222000Z 23012G18KT 29/M02 A2972 RMK A01 T02911016  RH  014%=      5-min Rain = 0
KTIS 222005Z 21010G17KT 29/M01 A2972 RMK A01 T02941013  RH  014%=      5-min Rain = 0
KTIS 222010Z 20012G20KT 30/M01 A2972 RMK A01 T02951014  RH  014%=      5-min Rain = 0
KTIS 222015Z 22010G16KT 30/M02 A2972 RMK A01 T02951015  RH  013%=      5-min Rain = 0
KTIS 222020Z 22010G19KT 30/M02 A2972 RMK A01 T02961017  RH  013%=      5-min Rain = 0
KTIS 222025Z 22011KT 30/M02 A2972 RMK A01 T02991021  RH  013%=      5-min Rain = 0
KTIS 222030Z 19012G17KT 30/M01 A2972 RMK A01 T03031013  RH  013%=      5-min Rain = 0
KTIS 222035Z 19012G18KT 30/M01 A2972 RMK A01 T03021013  RH  013%=      5-min Rain = 0
KTIS 222040Z 21008G17KT 31/M02 A2971 RMK A01 T03051016  RH  013%=      5-min Rain = 0
KTIS 222045Z 17015G27KT 31/M02 A2971 RMK A01 T03051017  RH  013%=      5-min Rain = 0
KTIS 222050Z 19017G26KT 31/M02 A2971 RMK A01 T03111019  RH  012%=      5-min Rain = 0
KTIS 222055Z 18017G22KT 31/M02 A2971 RMK A01 T03091023  RH  012%=      5-min Rain = 0
KTIS 222100Z 21015G21KT 31/M02 A2971 RMK A01 T03091024  RH  012%=      5-min Rain = 0
KTIS 222105Z 22014G20KT 31/M02 A2971 RMK A01 T03091022  RH  012%=      5-min Rain = 0
KTIS 222110Z 21012G18KT 31/M02 A2971 RMK A01 T03101022  RH  012%=      5-min Rain = 0
KTIS 222115Z 22013G18KT 31/M03 A2971 RMK A01 T03091026  RH  011%=      5-min Rain = 0
KTIS 222120Z 21016G24KT 31/M03 A2971 RMK A01 T03101031  RH  011%=      5-min Rain = 0
KTIS 222125Z 20019G26KT 31/M03 A2971 RMK A01 T03121033  RH  011%=      5-min Rain = 0
KTIS 222130Z 20016G24KT 31/M03 A2971 RMK A01 T03141028  RH  011%=      5-min Rain = 0
KTIS 222135Z 20018G25KT 31/M03 A2971 RMK A01 T03121033  RH  011%=      5-min Rain = 0
KTIS 222140Z 21018G28KT 31/M03 A2971 RMK A01 T03131030  RH  011%=      5-min Rain = 0
KTIS 222145Z 21018G27KT 31/M03 A2971 RMK A01 T03111034  RH  011%=      5-min Rain = 0
KTIS 222150Z 20016G21KT 31/M03 A2971 RMK A01 T03131026  RH  011%=      5-min Rain = 0
KTIS 222155Z 21018G23KT 32/M03 A2971 RMK A01 T03151034  RH  010%=      5-min Rain = 0
KTIS 222200Z 21017G24KT 31/M04 A2971 RMK A01 T03131036  RH  010%=      5-min Rain = 0
KTIS 222205Z 20015G21KT 31/M03 A2971 RMK A01 T03121031  RH  011%=      5-min Rain = 0
KTIS 222210Z 21014G20KT 31/M03 A2971 RMK A01 T03111029  RH  011%=      5-min Rain = 0
KTIS 222215Z 20017KT 31/M03 A2971 RMK A01 T03121033  RH  011%=      5-min Rain = 0
KTIS 222220Z 21017G27KT 31/M03 A2971 RMK A01 T03121034  RH  011%=      5-min Rain = 0
KTIS 222225Z 20013KT 31/M03 A2971 RMK A01 T03131029  RH  011%=      5-min Rain = 0
KTIS 222230Z 22013G19KT 32/M02 A2971 RMK A01 T03151024  RH  011%=      5-min Rain = 0
KTIS 222235Z 21013G18KT 31/M03 A2971 RMK A01 T03131029  RH  011%=      5-min Rain = 0
KTIS 222240Z 18015G20KT 32/M03 A2971 RMK A01 T03151027  RH  011%=      5-min Rain = 0
KTIS 222245Z 20014KT 32/M03 A2971 RMK A01 T03151031  RH  011%=      5-min Rain = 0
KTIS 222250Z 20016G22KT 31/M03 A2971 RMK A01 T03141031  RH  011%=      5-min Rain = 0
KTIS 222255Z 20018G24KT 31/M04 A2971 RMK A01 T03131036  RH  010%=      5-min Rain = 0
KTIS 222300Z 20018G24KT 31/M03 A2971 RMK A01 T03121032  RH  011%=      5-min Rain = 0
KTIS 222305Z 19014G21KT 31/M03 A2971 RMK A01 T03111030  RH  011%=      5-min Rain = 0
KTIS 222310Z 19012G21KT 31/M02 A2971 RMK A01 T03131020  RH  012%=      5-min Rain = 0
KTIS 222315Z 18018G24KT 31/M03 A2971 RMK A01 T03111032  RH  011%=      5-min Rain = 0
KTIS 222320Z 21015G20KT 31/M03 A2971 RMK A01 T03121025  RH  011%=      5-min Rain = 0
KTIS 222325Z 20014G20KT 31/M03 A2971 RMK A01 T03091028  RH  011%=      5-min Rain = 0
KTIS 222330Z 19017G22KT 31/M03 A2972 RMK A01 T03091027  RH  011%=      5-min Rain = 0
KTIS 222335Z 19015G21KT 31/M03 A2972 RMK A01 T03081026  RH  011%=      5-min Rain = 0
KTIS 222340Z 19016G22KT 31/M03 A2972 RMK A01 T03081025  RH  012%=      5-min Rain = 0
KTIS 222345Z 18017G22KT 31/M03 A2972 RMK A01 T03071025  RH  012%=      5-min Rain = 0
KTIS 222350Z 18017G24KT 31/M02 A2972 RMK A01 T03061021  RH  012%=      5-min Rain = 0
KTIS 222355Z 19015G23KT 31/M02 A2971 RMK A01 T03061017  RH  012%=      5-min Rain = 0
KTIS 230000Z 19017G23KT 31/M02 A2971 RMK A01 T03061019  RH  012%=      5-min Rain = 0
KTIS 230005Z 18016G21KT 31/M02 A2971 RMK A01 T03051018  RH  012%=      5-min Rain = 0
KTIS 230010Z 18019G28KT 31/M02 A2972 RMK A01 T03051020  RH  012%=      5-min Rain = 0
KTIS 230015Z 19018KT 30/M02 A2972 RMK A01 T03031021  RH  012%=      5-min Rain = 0
KTIS 230020Z 19015G21KT 30/M02 A2971 RMK A01 T03021022  RH  012%=      5-min Rain = 0
KTIS 230025Z 19015G21KT 30/M02 A2972 RMK A01 T03011015  RH  013%=      5-min Rain = 0
KTIS 230030Z 18016G23KT 30/M01 A2972 RMK A01 T02991011  RH  013%=      5-min Rain = 0
KTIS 230035Z 17017G23KT 30/M01 A2972 RMK A01 T02971012  RH  014%=      5-min Rain = 0
KTIS 230040Z 18016G22KT 30/M01 A2972 RMK A01 T02951007  RH  014%=      5-min Rain = 0
KTIS 230045Z 19016G22KT 29/M01 A2972 RMK A01 T02941009  RH  014%=      5-min Rain = 0
KTIS 230050Z 18015KT 29/M01 A2972 RMK A01 T02911009  RH  014%=      5-min Rain = 0
KTIS 230055Z 17014G19KT 29/M01 A2972 RMK A01 T02891005  RH  015%=      5-min Rain = 0
KTIS 230100Z 18014G20KT 29/M01 A2973 RMK A01 T02861005  RH  015%=      5-min Rain = 0
KTIS 230105Z 18012KT 28/00 A2973 RMK A01 T028200-0  RH  016%=      5-min Rain = 0
KTIS 230110Z 18013KT 28/M01 A2973 RMK A01 T02791007  RH  016%=      5-min Rain = 0
KTIS 230115Z 18013KT 28/M01 A2973 RMK A01 T02771009  RH  016%=      5-min Rain = 0
KTIS 230120Z 18013KT 27/M01 A2973 RMK A01 T02741010  RH  016%=      5-min Rain = 0
KTIS 230125Z 18012KT 27/M01 A2974 RMK A01 T02701009  RH  016%=      5-min Rain = 0
KTIS 230130Z 18012KT 27/M01 A2974 RMK A01 T02681010  RH  016%=      5-min Rain = 0
KTIS 230135Z 18012KT 26/M01 A2974 RMK A01 T02621010  RH  017%=      5-min Rain = 0
KTIS 230140Z 18011KT 26/M01 A2975 RMK A01 T02571010  RH  017%=      5-min Rain = 0
KTIS 230145Z 18011KT 25/M01 A2975 RMK A01 T02531010  RH  018%=      5-min Rain = 0
KTIS 230150Z 18010KT 25/M01 A2975 RMK A01 T02491009  RH  018%=      5-min Rain = 0
KTIS 230155Z 18010KT 24/M01 A2976 RMK A01 T02401006  RH  020%=      5-min Rain = 0
KTIS 230200Z 16009KT 23/00 A2976 RMK A01 T023400-0  RH  022%=      5-min Rain = 0
KTIS 230205Z 15010G15KT 23/00 A2976 RMK A01 T02260002  RH  023%=      5-min Rain = 0
KTIS 230210Z 15013KT 23/01 A2976 RMK A01 T02330007  RH  023%=      5-min Rain = 0
KTIS 230215Z 16012KT 24/02 A2977 RMK A01 T02360015  RH  024%=      5-min Rain = 0
KTIS 230220Z 16012KT 23/02 A2977 RMK A01 T02300022  RH  026%=      5-min Rain = 0
KTIS 230225Z 15012KT 23/03 A2977 RMK A01 T02270029  RH  028%=      5-min Rain = 0
KTIS 230230Z 15011KT 23/03 A2977 RMK A01 T02270034  RH  029%=      5-min Rain = 0
KTIS 230235Z 15010KT 22/04 A2978 RMK A01 T02220038  RH  030%=      5-min Rain = 0
KTIS 230240Z 15010KT 22/04 A2978 RMK A01 T02180040  RH  032%=      5-min Rain = 0
KTIS 230245Z 15009KT 21/04 A2978 RMK A01 T02130042  RH  033%=      5-min Rain = 0
KTIS 230250Z 15009KT 21/04 A2978 RMK A01 T02100043  RH  034%=      5-min Rain = 0
KTIS 230255Z 15010KT 21/04 A2978 RMK A01 T02090044  RH  034%=      5-min Rain = 0
KTIS 230300Z 15011KT 21/04 A2979 RMK A01 T02090044  RH  034%=      5-min Rain = 0
KTIS 230305Z 15010KT 21/05 A2979 RMK A01 T02080046  RH  035%=      5-min Rain = 0
KTIS 230310Z 15009KT 21/05 A2979 RMK A01 T02050046  RH  036%=      5-min Rain = 0
KTIS 230315Z 15008KT 20/05 A2979 RMK A01 T02000048  RH  038%=      5-min Rain = 0
KTIS 230320Z 15008KT 19/05 A2979 RMK A01 T01940048  RH  039%=      5-min Rain = 0
KTIS 230325Z 15008KT 19/05 A298 RMK A01 T01880050  RH  041%=      5-min Rain = 0
KTIS 230330Z 15009KT 19/05 A298 RMK A01 T01870049  RH  041%=      5-min Rain = 0
KTIS 230335Z 16010KT 19/05 A298 RMK A01 T01880049  RH  041%=      5-min Rain = 0
KTIS 230340Z 16010KT 19/05 A298 RMK A01 T01870050  RH  041%=      5-min Rain = 0
KTIS 230345Z 16011KT 19/05 A2981 RMK A01 T01890051  RH  041%=      5-min Rain = 0
KTIS 230350Z 16011KT 19/05 A2981 RMK A01 T01900051  RH  041%=      5-min Rain = 0
KTIS 230355Z 16011KT 19/05 A2981 RMK A01 T01890053  RH  042%=      5-min Rain = 0
KTIS 230400Z 16010KT 19/06 A2982 RMK A01 T01870055  RH  043%=      5-min Rain = 0
KTIS 230405Z 15011KT 19/06 A2982 RMK A01 T01870058  RH  044%=      5-min Rain = 0
KTIS 230410Z 15010KT 19/06 A2982 RMK A01 T01890062  RH  045%=      5-min Rain = 0
KTIS 230415Z 15010KT 19/07 A2982 RMK A01 T01900067  RH  046%=      5-min Rain = 0
KTIS 230420Z 15011KT 19/07 A2982 RMK A01 T01900072  RH  047%=      5-min Rain = 0
KTIS 230425Z 15011KT 19/08 A2982 RMK A01 T01920078  RH  049%=      5-min Rain = 0
KTIS 230430Z 15012KT 20/08 A2983 RMK A01 T01960082  RH  049%=      5-min Rain = 0
KTIS 230435Z 15012KT 20/09 A2982 RMK A01 T01990085  RH  049%=      5-min Rain = 0
KTIS 230440Z 15011KT 20/09 A2983 RMK A01 T01980088  RH  051%=      5-min Rain = 0
KTIS 230445Z 15011KT 20/09 A2982 RMK A01 T01980092  RH  052%=      5-min Rain = 0
KTIS 230450Z 15011KT 20/10 A2982 RMK A01 T01980096  RH  053%=      5-min Rain = 0
KTIS 230455Z 15011KT 20/10 A2982 RMK A01 T01990100  RH  055%=      5-min Rain = 0

Page generated in 0.0195 seconds.